Time;durP1;ratioP1;P1;durP2;ratioP2;P2;SDS_P1;SDS_P2;PMS_P1;PMS_P2;Temp;Humidity;BMP_temperature;BMP_pressure;BME280_temperature;BME280_humidity;BME280_pressure;Samples;Min_cycle;Max_cycle;Signal;HPM_P1;HPM_P2
2023/02/20 00:01:56;;;;;;;5.40;1.73;;;;;;;3.07;96.82;101629.13;5017195;28;20458;-68
2023/02/20 00:04:23;;;;;;;6.80;2.00;;;;;;;3.05;97.92;101615.94;5017143;28;20442;-68
2023/02/20 00:06:50;;;;;;;6.27;1.87;;;;;;;3.06;97.59;101620.28;5016917;28;20827;-68
2023/02/20 00:09:17;;;;;;;6.60;2.07;;;;;;;3.10;97.33;101624.13;5016369;28;20847;-68
2023/02/20 00:11:43;;;;;;;8.93;2.53;;;;;;;3.04;97.73;101612.47;5016646;28;20530;-68
2023/02/20 00:14:10;;;;;;;6.10;2.20;;;;;;;3.07;97.60;101607.72;5016340;28;20538;-68
2023/02/20 00:16:36;;;;;;;8.80;2.90;;;;;;;3.08;97.53;101617.38;5016574;28;20447;-68
2023/02/20 00:19:04;;;;;;;7.27;1.90;;;;;;;3.03;98.12;101610.00;5016413;28;20922;-68
2023/02/20 00:21:31;;;;;;;8.47;2.83;;;;;;;3.05;98.10;101615.94;5016475;28;20487;-68
2023/02/20 00:23:58;;;;;;;12.70;3.33;;;;;;;3.06;98.35;101611.44;5016380;28;20523;-68
2023/02/20 00:26:24;;;;;;;14.70;2.50;;;;;;;3.03;98.19;101602.00;5016379;28;20476;-68
2023/02/20 00:28:51;;;;;;;8.27;2.80;;;;;;;3.04;98.24;101604.44;5016268;28;20470;-68
2023/02/20 00:31:18;;;;;;;8.27;3.20;;;;;;;3.06;98.77;101606.91;5015978;28;20539;-67
2023/02/20 00:33:45;;;;;;;8.43;2.83;;;;;;;3.10;98.50;101608.09;5016325;28;20452;-69
2023/02/20 00:36:17;;;;;;;7.03;2.40;;;;;;;3.08;98.93;101604.78;5015918;28;20847;-69
2023/02/20 00:38:44;;;;;;;9.87;3.13;;;;;;;3.10;99.07;101601.88;5015681;28;20506;-69
2023/02/20 00:41:13;;;;;;;7.53;2.80;;;;;;;3.12;98.72;101605.97;5015803;28;20445;-69
2023/02/20 00:43:40;;;;;;;11.93;2.80;;;;;;;3.13;98.91;101596.09;5016073;28;20452;-69
2023/02/20 00:46:11;;;;;;;9.33;3.00;;;;;;;3.12;98.17;101584.56;5016042;28;20444;-69
2023/02/20 00:48:38;;;;;;;7.10;2.53;;;;;;;3.11;98.65;101582.13;5015980;28;20459;-69
2023/02/20 00:51:05;;;;;;;10.83;4.40;;;;;;;3.12;99.04;101583.75;5015960;28;20444;-69
2023/02/20 00:53:32;;;;;;;6.60;2.17;;;;;;;3.11;99.08;101582.13;5015552;28;21094;-69
2023/02/20 00:55:59;;;;;;;7.47;2.67;;;;;;;3.12;98.43;101576.53;5015830;28;20535;-68
2023/02/20 00:58:26;;;;;;;8.60;2.90;;;;;;;3.16;98.91;101567.00;5015345;28;21041;-68
2023/02/20 01:00:52;;;;;;;6.27;2.30;;;;;;;3.16;98.75;101569.69;5015643;28;20568;-68
2023/02/20 01:03:19;;;;;;;7.57;2.43;;;;;;;3.17;98.77;101565.16;5015414;28;20448;-68
2023/02/20 01:05:45;;;;;;;6.93;2.47;;;;;;;3.19;98.76;101552.38;5015676;28;20526;-69
2023/02/20 01:08:12;;;;;;;8.80;3.17;;;;;;;3.18;98.79;101554.22;5015521;28;20474;-68
2023/02/20 01:10:40;;;;;;;8.13;3.20;;;;;;;3.22;98.73;101557.25;5014483;28;20475;-69
2023/02/20 01:13:06;;;;;;;10.40;3.07;;;;;;;3.27;97.92;101560.88;5015498;28;20466;-69
2023/02/20 01:15:33;;;;;;;7.63;2.63;;;;;;;3.27;97.93;101552.84;5015016;28;20527;-69
2023/02/20 01:18:00;;;;;;;8.03;2.60;;;;;;;3.29;98.70;101552.63;5015114;28;20906;-68
2023/02/20 01:20:26;;;;;;;9.03;3.07;;;;;;;3.33;98.92;101542.28;5015308;28;20583;-67
2023/02/20 01:22:53;;;;;;;11.43;3.47;;;;;;;3.35;98.46;101545.53;5015334;28;20482;-69
2023/02/20 01:25:19;;;;;;;7.93;2.77;;;;;;;3.39;97.83;101546.72;5015292;28;20444;-68
2023/02/20 01:27:47;;;;;;;7.43;2.63;;;;;;;3.36;97.46;101526.56;5015208;28;20463;-69
2023/02/20 01:30:14;;;;;;;9.43;3.70;;;;;;;3.39;97.88;101533.31;5015212;28;20523;-69
2023/02/20 01:32:41;;;;;;;8.03;2.80;;;;;;;3.43;98.31;101523.78;5015101;28;20498;-68
2023/02/20 01:35:08;;;;;;;7.77;3.30;;;;;;;3.39;98.71;101512.72;5014846;28;20451;-69
2023/02/20 01:37:35;;;;;;;10.37;3.50;;;;;;;3.43;98.64;101508.53;5014848;28;20518;-68
2023/02/20 01:40:01;;;;;;;11.70;4.27;;;;;;;3.50;98.07;101505.75;5014699;28;20554;-68
2023/02/20 01:42:31;;;;;;;8.10;3.17;;;;;;;3.56;97.96;101499.47;5014960;28;20471;-67
2023/02/20 01:45:27;;;;;;;9.80;3.50;;;;;;;3.62;97.22;101503.88;5014972;28;20444;-68
2023/02/20 01:47:57;;;;;;;8.60;3.60;;;;;;;3.64;97.67;101493.78;5014914;28;20470;-69
2023/02/20 01:50:27;;;;;;;9.60;3.07;;;;;;;3.64;97.48;101496.44;5014805;28;20444;-69
2023/02/20 01:52:58;;;;;;;9.80;3.33;;;;;;;3.68;97.86;101494.94;5014834;28;20523;-69
2023/02/20 01:55:29;;;;;;;7.00;2.40;;;;;;;3.76;97.46;101489.25;5014799;28;20433;-69
2023/02/20 01:58:00;;;;;;;15.33;3.23;;;;;;;3.75;97.11;101482.22;5014648;28;20460;-69
2023/02/20 02:00:29;;;;;;;15.50;3.83;;;;;;;3.82;97.00;101466.03;5014597;28;20468;-69
2023/02/20 02:03:00;;;;;;;7.47;2.73;;;;;;;3.84;96.78;101457.75;5014640;28;20471;-68
2023/02/20 02:05:28;;;;;;;9.20;3.10;;;;;;;3.86;95.93;101455.69;5014547;28;20436;-69
2023/02/20 02:07:56;;;;;;;9.60;2.80;;;;;;;3.82;96.47;101455.31;5014166;28;20468;-68
2023/02/20 02:10:28;;;;;;;10.20;3.43;;;;;;;3.87;96.53;101458.13;5014428;28;20523;-68
2023/02/20 02:12:55;;;;;;;11.00;3.70;;;;;;;3.84;96.40;101452.41;5014123;28;20428;-68
2023/02/20 02:15:23;;;;;;;10.30;2.90;;;;;;;3.80;97.08;101444.00;5014022;28;20446;-68
2023/02/20 02:18:15;;;;;;;9.70;3.03;;;;;;;3.87;96.15;101446.59;5014337;28;20499;-68
2023/02/20 02:21:34;;;;;;;6.70;1.80;;;;;;;3.87;97.02;101451.94;5014013;28;20476;-68
2023/02/20 02:24:36;;;;;;;9.10;2.77;;;;;;;3.82;97.09;101454.50;5014239;28;20444;-69
2023/02/20 02:27:46;;;;;;;6.33;2.40;;;;;;;3.90;96.83;101435.41;5008840;28;20498;-68
2023/02/20 02:30:46;;;;;;;8.43;2.70;;;;;;;3.94;96.64;101445.41;5013821;28;20538;-68
2023/02/20 02:33:41;;;;;;;9.20;3.10;;;;;;;3.99;96.22;101434.00;5014114;28;20435;-69
2023/02/20 02:36:31;;;;;;;8.30;2.33;;;;;;;4.02;96.50;101428.94;5014111;28;20433;-68
2023/02/20 02:39:05;;;;;;;9.30;2.73;;;;;;;4.03;96.08;101417.19;5013588;28;20558;-68
2023/02/20 02:41:39;;;;;;;7.90;1.67;;;;;;;4.03;96.06;101406.47;5013925;28;20475;-68
2023/02/20 02:44:13;;;;;;;12.97;3.23;;;;;;;4.05;96.93;101404.34;5013988;28;20423;-68
2023/02/20 02:46:42;;;;;;;11.30;2.17;;;;;;;4.09;97.03;101401.22;5013813;28;20428;-68
2023/02/20 02:49:14;;;;;;;8.87;3.27;;;;;;;4.11;96.95;101402.59;5013737;28;20467;-68
2023/02/20 02:51:46;;;;;;;12.63;3.20;;;;;;;4.20;97.15;101403.03;5013791;28;20511;-68
2023/02/20 02:54:15;;;;;;;10.13;3.07;;;;;;;4.23;97.34;101403.38;5013513;28;20428;-68
2023/02/20 02:56:45;;;;;;;9.40;3.40;;;;;;;4.26;97.18;101389.50;5013720;28;20482;-68
2023/02/20 02:59:15;;;;;;;10.30;3.37;;;;;;;4.28;97.33;101398.09;5013620;28;20496;-68
2023/02/20 03:01:45;;;;;;;7.80;2.67;;;;;;;4.34;96.72;101400.88;5013319;28;20542;-68
2023/02/20 03:04:13;;;;;;;14.67;3.33;;;;;;;4.38;96.51;101393.97;5013433;28;20804;-68
2023/02/20 03:06:46;;;;;;;8.60;2.93;;;;;;;4.42;96.70;101390.56;5014671;28;20448;-68
2023/02/20 03:09:17;;;;;;;9.87;2.50;;;;;;;4.40;97.21;101383.84;5014220;28;20483;-68
2023/02/20 03:11:45;;;;;;;11.70;3.10;;;;;;;4.43;97.34;101388.75;5013717;28;20871;-68
2023/02/20 03:17:08;;;;;;;7.30;2.80;;;;;;;4.47;98.01;101379.13;5013440;28;20415;-68
2023/02/20 03:19:39;;;;;;;9.10;3.27;;;;;;;4.53;97.73;101370.13;5013069;28;20432;-68
2023/02/20 03:22:13;;;;;;;9.47;4.00;;;;;;;4.56;96.93;101364.31;5013415;28;20440;-68
2023/02/20 03:24:54;;;;;;;12.53;2.80;;;;;;;4.58;97.17;101351.44;5013429;28;20412;-68
2023/02/20 03:27:26;;;;;;;9.30;3.10;;;;;;;4.59;97.81;101346.88;5013232;28;20425;-68
2023/02/20 03:29:58;;;;;;;9.97;3.50;;;;;;;4.65;97.85;101332.50;5013099;28;20943;-67
2023/02/20 03:43:32;;;;;;;12.33;3.87;;;;;;;4.85;97.41;101332.03;5017111;28;20407;-68
2023/02/20 03:46:02;;;;;;;11.27;3.40;;;;;;;4.85;97.62;101323.97;5017161;28;20444;-68
2023/02/20 03:48:33;;;;;;;10.80;3.60;;;;;;;4.92;97.42;101325.44;5017292;28;20460;-68
2023/02/20 03:53:46;;;;;;;8.47;3.23;;;;;;;4.96;97.26;101329.28;5016908;28;20471;-68
2023/02/20 03:56:18;;;;;;;8.40;3.30;;;;;;;5.00;97.33;101332.25;5016983;28;20446;-68
2023/02/20 03:58:48;;;;;;;8.70;3.63;;;;;;;5.02;97.70;101327.47;5016598;28;20827;-68
2023/02/20 04:01:20;;;;;;;10.13;3.50;;;;;;;5.01;97.94;101328.53;5016807;28;20484;-68
2023/02/20 04:03:49;;;;;;;13.60;3.60;;;;;;;5.02;98.31;101332.84;5016565;28;20874;-68
2023/02/20 04:06:19;;;;;;;7.63;2.57;;;;;;;5.07;98.34;101331.03;5016836;28;20546;-68
2023/02/20 04:08:54;;;;;;;11.40;3.80;;;;;;;5.15;98.35;101326.31;5016673;28;20460;-68
2023/02/20 04:11:24;;;;;;;15.43;3.40;;;;;;;5.19;98.16;101324.78;5016722;28;20423;-68
2023/02/20 04:13:54;;;;;;;11.53;4.20;;;;;;;5.25;97.95;101313.84;5016717;28;20450;-68
2023/02/20 04:16:22;;;;;;;9.40;3.40;;;;;;;5.27;98.11;101305.56;5016591;28;20446;-68
2023/02/20 04:18:49;;;;;;;10.43;3.90;;;;;;;5.34;98.40;101314.22;5016520;28;20460;-68
2023/02/20 04:21:21;;;;;;;11.90;3.90;;;;;;;5.34;98.52;101314.22;5016458;28;20550;-68
2023/02/20 04:24:01;;;;;;;9.53;3.27;;;;;;;5.40;98.20;101304.34;5016223;28;20523;-68
2023/02/20 04:26:27;;;;;;;8.70;2.63;;;;;;;5.42;98.51;101303.06;5016498;28;20504;-68
2023/02/20 04:28:54;;;;;;;10.97;4.10;;;;;;;5.43;98.65;101293.13;5016333;28;20471;-68
2023/02/20 04:31:22;;;;;;;11.10;3.20;;;;;;;5.48;98.41;101285.13;5016338;28;20444;-68
2023/02/20 04:33:49;;;;;;;14.60;4.17;;;;;;;5.48;98.45;101285.13;5016037;28;20438;-69
2023/02/20 04:36:15;;;;;;;10.00;4.60;;;;;;;5.49;98.60;101276.84;5016264;28;20483;-68
2023/02/20 04:38:42;;;;;;;11.43;4.50;;;;;;;5.55;98.83;101281.19;5015844;28;20483;-68
2023/02/20 04:41:10;;;;;;;7.40;2.87;;;;;;;5.53;99.20;101277.13;5016115;28;20490;-68
2023/02/20 04:43:36;;;;;;;7.30;2.80;;;;;;;5.55;99.16;101272.31;5015824;28;20444;-68
2023/02/20 04:46:03;;;;;;;11.03;3.30;;;;;;;5.60;98.87;101277.75;5014470;28;20960;-68
2023/02/20 04:48:30;;;;;;;13.93;4.30;;;;;;;5.61;99.01;101284.75;5015302;28;21007;-68
2023/02/20 04:50:56;;;;;;;8.03;3.10;;;;;;;5.67;98.94;101280.25;5015608;28;20476;-68
2023/02/20 04:53:23;;;;;;;9.60;3.70;;;;;;;5.72;98.79;101281.13;5015558;28;20812;-68
2023/02/20 04:55:50;;;;;;;9.67;3.70;;;;;;;5.75;98.92;101260.97;5053631;22;20875;-65
2023/02/20 04:58:18;;;;;;;9.53;3.40;;;;;;;5.75;98.49;101253.72;5035591;28;20440;-66
2023/02/20 05:00:44;;;;;;;10.10;3.93;;;;;;;5.76;99.10;101244.63;5035317;28;20578;-65
2023/02/20 05:03:11;;;;;;;7.23;3.00;;;;;;;5.82;98.87;101234.72;5035371;28;20473;-65
2023/02/20 05:05:38;;;;;;;11.83;3.93;;;;;;;5.80;99.17;101237.69;5035193;28;20471;-65
2023/02/20 05:08:07;;;;;;;9.00;3.37;;;;;;;5.85;99.40;101239.59;5035331;28;20446;-66
2023/02/20 05:10:35;;;;;;;11.00;4.30;;;;;;;5.91;98.75;101216.28;5034837;28;20994;-66
2023/02/20 05:13:02;;;;;;;8.93;3.70;;;;;;;5.94;98.66;101205.03;5035317;28;20530;-66
2023/02/20 05:15:32;;;;;;;11.77;3.80;;;;;;;5.88;99.64;101216.75;5035277;28;20467;-65
2023/02/20 05:17:58;;;;;;;8.43;3.80;;;;;;;5.85;100.00;101209.22;5035112;28;20447;-64
2023/02/20 05:22:17;;;;;;;11.10;4.20;;;;;;;5.87;100.00;101215.16;5034740;28;20483;-67
2023/02/20 05:23:11;;;;;;;9.83;4.00;;;;;;;5.82;100.00;101213.22;5034569;28;20439;-68
2023/02/20 05:25:38;;;;;;;10.50;3.67;;;;;;;5.82;100.00;101210.53;5034681;28;20895;-69
2023/02/20 05:28:04;;;;;;;10.73;3.13;;;;;;;5.77;100.00;101203.22;5035209;28;20201;-69
2023/02/20 05:30:32;;;;;;;10.30;3.80;;;;;;;5.77;100.00;101211.28;5035153;28;20435;-67
2023/02/20 05:32:59;;;;;;;11.60;4.40;;;;;;;5.79;100.00;101206.47;5035028;28;20486;-67
2023/02/20 05:35:26;;;;;;;10.23;3.30;;;;;;;5.83;100.00;101212.97;5034663;28;20462;-65
2023/02/20 05:37:52;;;;;;;9.50;3.43;;;;;;;5.79;100.00;101200.28;5034882;28;20446;-67
2023/02/20 05:40:20;;;;;;;13.70;4.60;;;;;;;5.81;100.00;101195.47;5034886;28;20479;-67
2023/02/20 05:42:46;;;;;;;12.83;4.80;;;;;;;5.78;100.00;101194.09;5034778;28;20443;-67
2023/02/20 05:45:14;;;;;;;11.70;4.50;;;;;;;5.73;100.00;101194.06;5034528;28;20994;-68
2023/02/20 05:47:42;;;;;;;11.30;4.10;;;;;;;5.73;100.00;101187.88;5034884;28;20447;-69
2023/02/20 05:50:09;;;;;;;10.80;3.63;;;;;;;5.74;100.00;101186.78;5034448;28;20963;-68
2023/02/20 05:52:36;;;;;;;12.90;4.77;;;;;;;5.77;100.00;101181.72;5034569;28;20447;-68
2023/02/20 05:55:02;;;;;;;11.03;4.23;;;;;;;5.71;100.00;101182.75;5034146;28;20475;-68
2023/02/20 05:57:29;;;;;;;9.70;3.70;;;;;;;5.70;100.00;101185.69;5034432;28;20542;-67
2023/02/20 05:59:56;;;;;;;10.87;3.60;;;;;;;5.68;100.00;101177.06;5034571;28;20442;-68
2023/02/20 06:02:22;;;;;;;14.03;5.00;;;;;;;5.69;100.00;101168.75;5034414;28;20570;-67
2023/02/20 06:04:50;;;;;;;12.73;4.30;;;;;;;5.63;100.00;101152.84;5034734;28;20558;-68
2023/02/20 06:07:17;;;;;;;14.13;4.83;;;;;;;5.67;100.00;101154.75;5034648;28;20481;-66
2023/02/20 06:09:44;;;;;;;11.20;4.30;;;;;;;5.74;100.00;101146.47;5034606;28;20447;-70
2023/02/20 06:12:11;;;;;;;12.20;4.50;;;;;;;5.74;100.00;101139.22;5034306;28;20441;-71
2023/02/20 06:14:38;;;;;;;12.53;4.43;;;;;;;5.77;100.00;101148.66;5034355;28;20494;-71
2023/02/20 06:17:04;;;;;;;10.20;4.47;;;;;;;5.74;100.00;101136.53;5034329;28;20554;-69
2023/02/20 06:19:31;;;;;;;11.03;4.00;;;;;;;5.75;100.00;101124.72;5034198;28;20450;-69
2023/02/20 06:22:00;;;;;;;9.70;3.40;;;;;;;5.79;100.00;101131.19;5033955;28;20486;-66
2023/02/20 06:24:28;;;;;;;15.90;5.37;;;;;;;5.83;100.00;101136.88;5033693;28;20988;-68
2023/02/20 06:26:54;;;;;;;8.60;3.77;;;;;;;5.82;100.00;101133.38;5035650;28;20505;-68
2023/02/20 06:29:21;;;;;;;18.03;4.40;;;;;;;5.78;100.00;101124.22;5035114;28;20447;-69
2023/02/20 06:31:48;;;;;;;11.67;3.90;;;;;;;5.82;100.00;101106.50;5034867;28;20449;-69
2023/02/20 06:34:16;;;;;;;11.20;4.10;;;;;;;5.90;100.00;101099.03;5035351;28;20439;-69
2023/02/20 06:36:43;;;;;;;10.70;4.40;;;;;;;5.91;100.00;101096.09;5035236;28;20494;-68
2023/02/20 06:39:13;;;;;;;11.97;4.20;;;;;;;5.99;100.00;101109.09;5035089;28;20482;-69
2023/02/20 06:41:40;;;;;;;13.57;4.57;;;;;;;5.99;100.00;101129.81;5034767;28;20567;-68
2023/02/20 06:44:07;;;;;;;12.17;4.70;;;;;;;5.92;100.00;101126.50;5035340;28;20447;-70
2023/02/20 06:46:33;;;;;;;10.50;4.57;;;;;;;5.93;100.00;101102.06;5035149;28;20447;-69
2023/02/20 06:49:00;;;;;;;11.33;4.20;;;;;;;5.92;100.00;101088.88;5035183;28;20449;-69
2023/02/20 06:51:28;;;;;;;15.07;4.87;;;;;;;5.94;100.00;101101.00;5035163;28;20435;-69
2023/02/20 06:53:55;;;;;;;14.47;5.70;;;;;;;5.96;100.00;101082.72;5035361;28;20435;-69
2023/02/20 06:56:25;;;;;;;14.77;5.00;;;;;;;6.00;100.00;101101.84;5034394;28;20475;-69
2023/02/20 06:58:52;;;;;;;16.33;6.40;;;;;;;6.09;100.00;101111.03;5034414;28;20944;-67
2023/02/20 07:01:20;;;;;;;15.23;6.07;;;;;;;6.12;100.00;101107.84;5034259;28;20481;-69
2023/02/20 07:03:47;;;;;;;14.87;6.07;;;;;;;6.17;100.00;101096.31;5034785;28;20888;-69
2023/02/20 07:06:14;;;;;;;13.97;5.30;;;;;;;6.18;100.00;101103.31;5034939;28;20467;-68
2023/02/20 07:08:41;;;;;;;14.70;6.50;;;;;;;6.26;100.00;101108.22;5034397;28;20474;-68
2023/02/20 07:11:08;;;;;;;15.07;6.30;;;;;;;6.30;100.00;101077.03;5034244;28;20999;-70
2023/02/20 07:13:36;;;;;;;12.47;5.50;;;;;;;6.32;100.00;101073.00;5034454;28;20475;-69
2023/02/20 07:16:02;;;;;;;18.83;6.13;;;;;;;6.38;100.00;101081.13;5034095;28;20486;-68
2023/02/20 07:18:29;;;;;;;14.53;6.00;;;;;;;6.40;100.00;101087.84;5034122;28;20440;-68
2023/02/20 07:20:56;;;;;;;18.40;6.10;;;;;;;6.46;98.78;101080.59;5034941;28;20454;-68
2023/02/20 07:23:23;;;;;;;15.80;6.97;;;;;;;6.52;98.43;101064.22;5035063;28;20451;-69
2023/02/20 07:25:50;;;;;;;16.33;6.40;;;;;;;6.57;97.84;101072.31;5034720;28;20571;-68
2023/02/20 07:28:17;;;;;;;13.20;6.13;;;;;;;6.60;97.41;101089.00;5033624;28;20534;-67
2023/02/20 07:30:47;;;;;;;15.20;6.57;;;;;;;6.61;97.38;101096.84;5033785;28;20526;-68
2023/02/20 07:33:14;;;;;;;14.60;6.20;;;;;;;6.67;96.82;101094.97;5034250;28;20453;-69
2023/02/20 07:35:41;;;;;;;16.20;5.03;;;;;;;6.65;96.06;101089.88;5033859;28;20459;-68
2023/02/20 07:38:07;;;;;;;14.33;6.47;;;;;;;6.77;94.95;101082.38;5033575;28;20822;-68
2023/02/20 07:40:34;;;;;;;16.43;6.93;;;;;;;6.83;94.76;101069.75;5034006;28;20443;-68
2023/02/20 07:43:01;;;;;;;13.20;5.50;;;;;;;6.83;94.22;101059.78;5033209;28;20482;-68
2023/02/20 07:45:27;;;;;;;17.67;5.83;;;;;;;6.89;94.18;101066.00;5033565;28;20467;-68
2023/02/20 07:47:55;;;;;;;11.70;5.60;;;;;;;6.98;93.01;101052.81;5033922;28;20447;-68
2023/02/20 07:50:22;;;;;;;11.53;5.23;;;;;;;7.02;92.40;101060.09;5033947;28;20445;-68
2023/02/20 07:52:48;;;;;;;14.13;5.53;;;;;;;6.96;92.49;101050.41;5034210;28;21186;-68
2023/02/20 07:55:17;;;;;;;12.23;5.67;;;;;;;6.95;92.42;101050.66;5033692;28;20850;-68
2023/02/20 07:57:47;;;;;;;15.40;6.10;;;;;;;6.95;93.27;101047.97;5033813;28;20439;-70
2023/02/20 08:00:15;;;;;;;14.63;5.13;;;;;;;6.99;91.48;101040.97;5034504;28;20439;-69
2023/02/20 08:02:42;;;;;;;11.60;4.80;;;;;;;6.99;92.24;101035.59;5033590;28;20527;-68
2023/02/20 08:05:11;;;;;;;14.13;5.43;;;;;;;7.06;91.34;101033.47;5033957;28;21118;-67
2023/02/20 08:07:38;;;;;;;14.97;5.30;;;;;;;7.02;91.41;101025.09;5033619;28;20483;-67
2023/02/20 08:10:06;;;;;;;12.57;5.23;;;;;;;7.07;91.61;101013.50;5032871;28;20439;-67
2023/02/20 08:12:33;;;;;;;11.63;4.57;;;;;;;7.11;91.92;101008.41;5032730;28;20447;-67
2023/02/20 08:14:59;;;;;;;9.43;4.00;;;;;;;7.17;90.35;101005.47;5032644;28;20910;-66
2023/02/20 08:17:26;;;;;;;9.30;3.80;;;;;;;7.19;90.79;101000.59;5032808;28;20527;-67
2023/02/20 08:19:52;;;;;;;9.23;4.30;;;;;;;7.19;90.17;100984.44;5035000;28;20443;-67
2023/02/20 08:22:20;;;;;;;9.83;3.97;;;;;;;7.21;90.57;100989.56;5036293;28;20483;-67
2023/02/20 08:24:47;;;;;;;11.10;5.00;;;;;;;7.26;89.12;100986.88;5036571;28;20498;-66
2023/02/20 08:27:13;;;;;;;14.10;4.00;;;;;;;7.20;90.24;100977.97;5036336;28;20526;-67
2023/02/20 08:29:40;;;;;;;8.73;3.67;;;;;;;7.27;89.75;100975.03;5036396;28;20439;-67
2023/02/20 08:32:06;;;;;;;11.67;4.03;;;;;;;7.36;89.20;100969.91;5036079;28;20943;-67
2023/02/20 08:34:33;;;;;;;10.50;4.43;;;;;;;7.39;89.25;100972.03;5036071;28;20489;-67
2023/02/20 08:37:00;;;;;;;10.27;4.33;;;;;;;7.45;88.73;100968.28;5036377;28;20797;-67
2023/02/20 08:39:27;;;;;;;9.07;3.83;;;;;;;7.52;87.58;100953.44;5036364;28;20450;-66
2023/02/20 08:41:54;;;;;;;11.07;4.17;;;;;;;7.53;87.78;100949.69;5036101;28;20487;-67
2023/02/20 08:44:21;;;;;;;8.60;3.73;;;;;;;7.56;87.89;100949.13;5035950;28;20454;-67
2023/02/20 08:46:47;;;;;;;11.13;4.60;;;;;;;7.54;88.26;100945.09;5036119;28;20891;-67
2023/02/20 08:49:16;;;;;;;11.47;4.00;;;;;;;7.55;88.64;100941.31;5035880;28;20447;-66
2023/02/20 08:51:43;;;;;;;12.23;4.57;;;;;;;7.59;88.05;100942.41;5035997;28;20440;-67
2023/02/20 08:54:10;;;;;;;9.57;3.77;;;;;;;7.70;87.04;100929.69;5035940;28;20445;-68
2023/02/20 08:56:38;;;;;;;10.03;3.63;;;;;;;7.73;87.46;100919.19;5036013;28;20446;-67
2023/02/20 08:59:04;;;;;;;9.30;3.63;;;;;;;7.71;87.22;100921.34;5035844;28;20439;-66
2023/02/20 09:01:31;;;;;;;11.97;4.17;;;;;;;7.75;87.90;100925.13;5035699;28;21012;-67
2023/02/20 09:03:58;;;;;;;9.40;3.30;;;;;;;7.82;87.51;100904.03;5035707;28;20875;-67
2023/02/20 09:06:25;;;;;;;10.40;3.87;;;;;;;7.84;86.35;100901.91;5035470;28;20516;-66
2023/02/20 09:08:51;;;;;;;9.23;4.17;;;;;;;7.89;86.70;100890.28;5035529;28;20447;-66
2023/02/20 09:11:18;;;;;;;13.63;3.87;;;;;;;7.96;86.18;100881.88;5035602;28;20534;-68
2023/02/20 09:13:48;;;;;;;13.23;4.03;;;;;;;8.03;86.29;100868.91;5035760;28;20886;-70
2023/02/20 09:16:16;;;;;;;11.10;3.40;;;;;;;8.01;86.44;100862.97;5035475;28;20541;-70
2023/02/20 09:18:44;;;;;;;8.30;2.90;;;;;;;8.02;87.42;100868.13;5035221;28;20486;-70
2023/02/20 09:21:12;;;;;;;11.43;4.20;;;;;;;8.10;86.70;100855.91;5036042;28;20522;-67
2023/02/20 09:23:38;;;;;;;7.80;2.67;;;;;;;8.16;85.48;100872.91;5035805;28;20578;-72
2023/02/20 09:26:06;;;;;;;8.60;3.20;;;;;;;8.16;85.65;100854.81;5035564;28;20463;-73
2023/02/20 09:28:32;;;;;;;7.87;3.50;;;;;;;8.21;85.10;100852.09;5035503;28;20449;-69
2023/02/20 09:31:01;;;;;;;9.60;3.70;;;;;;;8.29;84.25;100846.13;5034657;28;21035;-70
2023/02/20 09:33:28;;;;;;;9.87;3.50;;;;;;;8.30;84.50;100842.31;5035464;28;20813;-68
2023/02/20 09:35:55;;;;;;;7.57;2.63;;;;;;;8.32;84.50;100842.03;5034841;28;20457;-69
2023/02/20 09:38:25;;;;;;;8.27;3.37;;;;;;;8.46;83.73;100839.56;5035121;28;20447;-72
2023/02/20 09:40:56;;;;;;;8.30;3.20;;;;;;;8.57;83.18;100841.09;5035003;28;20478;-69
2023/02/20 09:43:40;;;;;;;11.10;3.20;;;;;;;8.65;82.17;100847.81;5035015;28;20467;-69
2023/02/20 09:46:12;;;;;;;6.63;2.37;;;;;;;8.58;82.46;100845.41;5034784;28;20459;-67
2023/02/20 09:48:51;;;;;;;10.80;3.50;;;;;;;8.56;83.24;100839.50;5034789;28;20434;-67
2023/02/20 09:51:21;;;;;;;8.40;3.60;;;;;;;8.59;82.99;100841.63;5034814;28;20510;-68
2023/02/20 09:53:54;;;;;;;13.00;3.43;;;;;;;8.69;82.80;100825.34;5034686;28;20526;-68
2023/02/20 09:56:24;;;;;;;8.87;3.00;;;;;;;8.70;83.56;100832.34;5034285;28;20562;-69
2023/02/20 09:58:58;;;;;;;7.20;2.97;;;;;;;8.78;82.38;100841.75;5034383;28;20428;-67
2023/02/20 10:01:28;;;;;;;7.80;3.10;;;;;;;8.82;81.34;100840.91;5034538;28;20886;-69
2023/02/20 10:03:57;;;;;;;9.23;3.40;;;;;;;8.87;82.98;100831.97;5034210;28;20447;-67
2023/02/20 10:06:26;;;;;;;6.63;2.80;;;;;;;9.01;81.71;100834.81;5034290;28;20525;-71
2023/02/20 10:08:53;;;;;;;11.20;3.90;;;;;;;9.07;81.37;100823.69;5034301;28;20812;-67
2023/02/20 10:11:36;;;;;;;9.33;3.30;;;;;;;9.13;81.79;100826.31;5034325;28;20483;-67
2023/02/20 10:14:23;;;;;;;7.63;2.27;;;;;;;9.13;81.48;100832.53;5034366;28;20415;-67
2023/02/20 10:17:00;;;;;;;10.83;3.73;;;;;;;9.20;81.45;100805.97;5034286;28;20522;-67
2023/02/20 10:19:36;;;;;;;6.97;2.83;;;;;;;9.33;80.37;100807.97;5033849;28;20923;-67
2023/02/20 10:22:09;;;;;;;11.63;2.97;;;;;;;9.37;80.01;100810.13;5033753;28;20477;-67
2023/02/20 10:24:51;;;;;;;8.73;3.00;;;;;;;9.35;81.13;100802.31;5034025;28;20470;-67
2023/02/20 10:27:32;;;;;;;10.70;2.87;;;;;;;9.42;80.51;100797.34;5034146;28;20494;-69
2023/02/20 10:30:01;;;;;;;9.17;2.80;;;;;;;9.45;80.83;100804.09;5034001;28;20446;-68
2023/02/20 10:32:36;;;;;;;9.70;2.87;;;;;;;9.49;79.54;100788.91;5033871;28;20784;-68
2023/02/20 10:35:06;;;;;;;8.20;3.00;;;;;;;9.59;78.91;100791.47;5033769;28;20463;-67
2023/02/20 10:37:38;;;;;;;10.60;2.73;;;;;;;9.65;79.21;100792.22;5033651;28;20529;-64
2023/02/20 10:40:16;;;;;;;7.40;2.70;;;;;;;9.61;79.69;100775.78;5033906;28;20427;-64
2023/02/20 10:42:50;;;;;;;10.13;3.60;;;;;;;9.75;79.14;100773.16;5032806;28;20557;-69
2023/02/20 10:45:27;;;;;;;9.17;2.90;;;;;;;9.81;79.21;100764.69;5034280;28;20466;-64
2023/02/20 10:48:01;;;;;;;8.03;2.60;;;;;;;9.79;79.07;100766.88;5033857;28;20485;-67
2023/02/20 10:50:35;;;;;;;10.87;3.87;;;;;;;9.83;79.02;100770.63;5033424;28;20904;-66
2023/02/20 10:53:07;;;;;;;8.27;2.47;;;;;;;9.94;78.92;100743.41;5033446;28;20518;-66
2023/02/20 10:55:38;;;;;;;7.60;2.53;;;;;;;10.03;79.54;100747.06;5033140;28;20479;-68
2023/02/20 10:58:10;;;;;;;7.67;2.53;;;;;;;10.16;79.53;100738.22;5033634;28;20416;-68
2023/02/20 11:00:41;;;;;;;7.37;3.00;;;;;;;10.20;78.92;100760.88;5033176;28;20424;-68
2023/02/20 11:03:14;;;;;;;8.20;2.50;;;;;;;10.31;78.20;100739.88;5033428;28;20566;-69
2023/02/20 11:05:46;;;;;;;8.13;2.77;;;;;;;10.33;78.44;100748.53;5033340;28;20796;-69
2023/02/20 11:08:19;;;;;;;11.17;2.57;;;;;;;10.24;79.84;100750.28;5033348;28;20431;-68
2023/02/20 11:10:46;;;;;;;7.23;2.63;;;;;;;10.29;79.50;100747.53;5033277;28;20466;-68
2023/02/20 11:13:18;;;;;;;7.80;2.90;;;;;;;10.29;79.98;100742.91;5032992;28;20446;-67
2023/02/20 11:15:46;;;;;;;19.83;2.80;;;;;;;10.34;80.33;100750.13;5032838;28;20459;-69
2023/02/20 11:18:24;;;;;;;8.00;3.10;;;;;;;10.39;80.10;100762.78;5033051;28;21015;-68
2023/02/20 11:20:52;;;;;;;7.83;2.90;;;;;;;10.42;80.22;100745.97;5033047;28;20904;-65
2023/02/20 11:23:37;;;;;;;8.00;3.40;;;;;;;10.46;80.44;100752.41;5033378;28;20478;-67
2023/02/20 11:26:22;;;;;;;9.03;3.50;;;;;;;10.49;80.76;100728.25;5032876;28;20471;-68
2023/02/20 11:28:57;;;;;;;9.70;3.27;;;;;;;10.50;81.20;100748.00;5033310;28;20467;-69
2023/02/20 11:31:24;;;;;;;11.83;3.90;;;;;;;10.48;81.33;100734.75;5033425;28;20423;-69
2023/02/20 11:33:55;;;;;;;6.97;2.67;;;;;;;10.54;80.85;100736.28;5033133;28;20471;-70
2023/02/20 11:36:25;;;;;;;6.83;2.57;;;;;;;10.56;80.59;100736.78;5033013;28;20471;-69
2023/02/20 11:38:57;;;;;;;7.83;3.50;;;;;;;10.45;82.11;100727.22;5032751;28;20447;-69
2023/02/20 11:41:28;;;;;;;8.10;2.80;;;;;;;10.53;81.63;100741.97;5032905;28;20872;-70
2023/02/20 11:44:07;;;;;;;7.40;2.90;;;;;;;10.52;81.65;100737.66;5032955;28;20471;-71
2023/02/20 11:46:33;;;;;;;8.70;3.30;;;;;;;10.50;81.39;100742.59;5032952;28;20528;-70
2023/02/20 11:49:04;;;;;;;7.17;2.90;;;;;;;10.54;81.84;100735.47;5032682;28;20435;-68
2023/02/20 11:51:33;;;;;;;7.90;2.77;;;;;;;10.49;82.36;100738.25;5033097;28;20446;-70
2023/02/20 11:54:07;;;;;;;8.80;3.30;;;;;;;10.46;82.92;100726.13;5034538;28;20482;-70
2023/02/20 11:56:34;;;;;;;12.27;4.40;;;;;;;10.46;83.48;100725.31;5037359;28;20517;-67